createdAt,value
2023-02-18T00:00:20.261Z,11.32
2023-02-18T00:02:47.638Z,11.33
2023-02-18T00:05:14.715Z,11.34
2023-02-18T00:07:41.612Z,11.34
2023-02-18T00:10:11.085Z,11.36
2023-02-18T00:12:37.595Z,11.33
2023-02-18T00:15:04.214Z,11.35
2023-02-18T00:17:30.720Z,11.28
2023-02-18T00:19:57.177Z,11.30
2023-02-18T00:22:24.334Z,11.29
2023-02-18T00:24:50.960Z,11.27
2023-02-18T00:27:17.467Z,11.27
2023-02-18T00:29:43.863Z,11.28
2023-02-18T00:32:10.334Z,11.28
2023-02-18T00:34:36.786Z,11.30
2023-02-18T00:37:03.170Z,11.31
2023-02-18T00:39:29.620Z,11.33
2023-02-18T00:41:56.288Z,11.31
2023-02-18T00:44:22.690Z,11.33
2023-02-18T00:46:49.728Z,11.30
2023-02-18T00:49:16.565Z,11.35
2023-02-18T00:51:42.949Z,11.30
2023-02-18T00:54:09.380Z,11.34
2023-02-18T00:56:35.890Z,11.33
2023-02-18T00:59:02.562Z,11.35
2023-02-18T01:01:29.131Z,11.32
2023-02-18T01:03:55.548Z,11.34
2023-02-18T01:06:25.095Z,11.36
2023-02-18T01:08:51.642Z,11.36
2023-02-18T01:11:18.252Z,11.38
2023-02-18T01:13:44.778Z,11.35
2023-02-18T01:16:12.103Z,11.35
2023-02-18T01:18:39.253Z,11.33
2023-02-18T01:21:08.540Z,11.34
2023-02-18T01:23:35.554Z,11.34
2023-02-18T01:26:02.479Z,11.31
2023-02-18T01:28:29.276Z,11.32
2023-02-18T01:30:55.725Z,11.29
2023-02-18T01:33:22.558Z,11.31
2023-02-18T01:35:48.980Z,11.32
2023-02-18T01:38:15.720Z,11.32
2023-02-18T01:40:47.093Z,11.35
2023-02-18T01:43:14.240Z,11.32
2023-02-18T01:45:47.580Z,11.28
2023-02-18T01:48:23.704Z,11.35
2023-02-18T01:50:54.035Z,11.30
2023-02-18T01:53:23.382Z,11.32
2023-02-18T01:55:49.854Z,11.32
2023-02-18T01:58:16.849Z,11.26
2023-02-18T02:00:43.341Z,11.25
2023-02-18T02:03:09.843Z,11.27
2023-02-18T02:05:36.276Z,11.28
2023-02-18T02:08:03.396Z,11.29
2023-02-18T02:10:39.130Z,11.27
2023-02-18T02:13:09.776Z,11.30
2023-02-18T02:15:49.882Z,11.25
2023-02-18T02:18:29.899Z,11.25
2023-02-18T02:21:11.798Z,11.27
2023-02-18T02:24:07.646Z,11.31
2023-02-18T02:26:37.284Z,11.31
2023-02-18T02:29:06.493Z,11.31
2023-02-18T02:31:32.841Z,11.31
2023-02-18T02:34:19.716Z,11.31
2023-02-18T02:36:54.791Z,11.28
2023-02-18T02:39:34.613Z,11.31
2023-02-18T02:42:04.678Z,11.32
2023-02-18T02:44:47.886Z,11.33
2023-02-18T02:47:20.165Z,11.28
2023-02-18T02:49:55.939Z,11.26
2023-02-18T02:52:26.834Z,11.21
2023-02-18T02:54:53.402Z,11.22
2023-02-18T02:57:19.827Z,11.27
2023-02-18T02:59:48.163Z,11.28
2023-02-18T03:02:33.488Z,11.25
2023-02-18T03:05:18.250Z,11.27
2023-02-18T03:07:49.438Z,11.24
2023-02-18T03:10:34.389Z,11.18
2023-02-18T03:13:39.133Z,11.24
2023-02-18T03:16:14.286Z,11.25
2023-02-18T03:18:43.743Z,11.29
2023-02-18T03:21:18.889Z,11.32
2023-02-18T03:23:49.579Z,11.28
2023-02-18T03:26:18.596Z,11.26
2023-02-18T03:28:45.846Z,11.28
2023-02-18T03:31:13.765Z,11.29
2023-02-18T03:33:46.274Z,11.29
2023-02-18T03:36:12.846Z,11.26
2023-02-18T03:38:42.715Z,11.25
2023-02-18T03:41:09.190Z,11.29
2023-02-18T03:43:35.603Z,11.29
2023-02-18T03:46:03.411Z,11.30
2023-02-18T03:48:29.781Z,11.29
2023-02-18T03:50:56.256Z,11.32
2023-02-18T03:53:23.215Z,11.28
2023-02-18T03:55:49.619Z,11.25
2023-02-18T03:58:19.024Z,11.25
2023-02-18T04:00:45.567Z,11.23
2023-02-18T04:03:11.978Z,11.18
2023-02-18T04:05:38.409Z,11.23
2023-02-18T04:08:05.617Z,11.24
2023-02-18T04:10:31.969Z,11.19
2023-02-18T04:12:58.444Z,11.17
2023-02-18T04:15:24.848Z,11.24
2023-02-18T04:17:51.205Z,11.21
2023-02-18T04:20:17.708Z,11.19
2023-02-18T04:22:44.227Z,11.25
2023-02-18T04:25:10.684Z,11.17
2023-02-18T04:27:37.032Z,11.24
2023-02-18T04:30:04.166Z,11.20
2023-02-18T04:32:30.667Z,11.25
2023-02-18T04:34:57.122Z,11.21
2023-02-18T04:37:23.445Z,11.24
2023-02-18T04:39:49.809Z,11.21
2023-02-18T04:42:16.120Z,11.25
2023-02-18T04:44:42.468Z,11.16
2023-02-18T04:47:08.982Z,11.18
2023-02-18T04:49:35.373Z,11.25
2023-02-18T04:52:01.890Z,11.17
2023-02-18T04:54:28.333Z,11.25
2023-02-18T04:56:54.736Z,11.32
2023-02-18T04:59:21.433Z,11.30
2023-02-18T05:01:47.783Z,11.34
2023-02-18T05:04:14.330Z,11.33
2023-02-18T05:06:42.988Z,11.34
2023-02-18T05:09:10.220Z,11.33
2023-02-18T05:11:36.594Z,11.29
2023-02-18T05:14:03.063Z,11.30
2023-02-18T05:16:29.696Z,11.31
2023-02-18T05:18:56.091Z,11.26
2023-02-18T05:21:22.465Z,11.35
2023-02-18T05:23:48.872Z,11.36
2023-02-18T05:26:15.361Z,11.29
2023-02-18T05:28:41.743Z,11.33
2023-02-18T05:31:08.217Z,11.32
2023-02-18T05:33:34.689Z,11.29
2023-02-18T05:36:01.197Z,11.30
2023-02-18T05:38:27.580Z,11.31
2023-02-18T05:40:55.229Z,11.28
2023-02-18T05:43:21.572Z,11.30
2023-02-18T05:45:47.893Z,11.25
2023-02-18T05:48:14.368Z,11.26
2023-02-18T05:50:41.208Z,11.24
2023-02-18T05:53:07.679Z,11.21
2023-02-18T05:55:39.491Z,11.25
2023-02-18T05:58:06.490Z,11.25
2023-02-18T06:00:33.226Z,11.26
2023-02-18T06:02:59.838Z,11.25
2023-02-18T06:05:26.333Z,11.21
2023-02-18T06:07:54.222Z,11.24
2023-02-18T06:10:21.592Z,11.20
2023-02-18T06:12:48.051Z,11.23
2023-02-18T06:15:14.456Z,11.18
2023-02-18T06:17:40.864Z,11.24
2023-02-18T06:20:07.594Z,11.22
2023-02-18T06:22:34.045Z,11.29
2023-02-18T06:25:00.425Z,11.25
2023-02-18T06:27:26.804Z,11.27
2023-02-18T06:29:53.150Z,11.30
2023-02-18T06:32:19.617Z,11.28
2023-02-18T06:34:46.068Z,11.33
2023-02-18T06:37:12.528Z,11.28
2023-02-18T06:39:39.737Z,11.30
2023-02-18T06:42:06.089Z,11.36
2023-02-18T06:44:32.472Z,11.28
2023-02-18T06:46:58.943Z,11.33
2023-02-18T06:49:25.356Z,11.39
2023-02-18T06:51:51.737Z,11.38
2023-02-18T06:54:18.093Z,11.36
2023-02-18T06:56:44.433Z,11.32
2023-02-18T06:59:11.634Z,11.27
2023-02-18T07:01:38.104Z,11.27
2023-02-18T07:04:04.716Z,11.35
2023-02-18T07:06:31.127Z,11.29
2023-02-18T07:08:57.627Z,11.33
2023-02-18T07:11:24.034Z,11.39
2023-02-18T07:13:50.471Z,11.42
2023-02-18T07:16:17.045Z,11.38
2023-02-18T07:18:43.435Z,11.41
2023-02-18T07:21:10.221Z,11.37
2023-02-18T07:23:36.904Z,11.44
2023-02-18T07:26:08.782Z,11.43
2023-02-18T07:28:35.692Z,11.43
2023-02-18T07:31:02.608Z,11.47
2023-02-18T07:33:29.296Z,11.43
2023-02-18T07:35:57.194Z,11.51
2023-02-18T07:38:25.380Z,11.47
2023-02-18T07:40:52.745Z,11.49
2023-02-18T07:43:19.223Z,11.49
2023-02-18T07:45:46.040Z,11.53
2023-02-18T07:48:12.831Z,11.51
2023-02-18T07:50:43.413Z,11.59
2023-02-18T07:53:10.805Z,11.52
2023-02-18T07:55:49.362Z,11.56
2023-02-18T07:58:16.970Z,11.52
2023-02-18T08:00:43.726Z,11.58
2023-02-18T08:03:10.232Z,11.55
2023-02-18T08:05:36.789Z,11.53
2023-02-18T08:08:03.278Z,11.58
2023-02-18T08:10:29.688Z,11.61
2023-02-18T08:12:56.171Z,11.63
2023-02-18T08:15:22.672Z,11.60
2023-02-18T08:17:49.171Z,11.50
2023-02-18T08:20:15.893Z,11.57
2023-02-18T08:22:42.360Z,11.64
2023-02-18T08:25:13.666Z,11.59
2023-02-18T08:27:44.594Z,11.64
2023-02-18T08:30:11.691Z,11.56
2023-02-18T08:32:38.306Z,11.64
2023-02-18T08:35:05.367Z,11.63
2023-02-18T08:37:53.104Z,11.66
2023-02-18T08:40:18.753Z,11.66
2023-02-18T08:42:45.153Z,11.57
2023-02-18T08:45:11.743Z,11.56
2023-02-18T08:48:17.766Z,11.59
2023-02-18T08:50:26.647Z,11.59
2023-02-18T08:52:53.285Z,11.48
2023-02-18T08:55:21.361Z,11.42
2023-02-18T08:57:48.333Z,11.32
2023-02-18T09:00:15.557Z,11.34
2023-02-18T09:02:42.337Z,11.27
2023-02-18T09:05:09.642Z,11.19
2023-02-18T09:07:36.735Z,11.19
2023-02-18T09:10:03.692Z,11.11
2023-02-18T09:12:30.128Z,11.06
2023-02-18T09:14:56.560Z,11.09
2023-02-18T09:17:22.990Z,11.08
2023-02-18T09:19:49.392Z,11.16
2023-02-18T09:22:15.834Z,11.13
2023-02-18T09:24:42.554Z,11.08
2023-02-18T09:27:11.258Z,11.14
2023-02-18T09:29:38.713Z,11.13
2023-02-18T09:32:05.979Z,11.14
2023-02-18T09:34:32.728Z,11.13
2023-02-18T09:36:59.092Z,11.09
2023-02-18T09:39:25.543Z,11.10
2023-02-18T09:41:53.262Z,11.19
2023-02-18T09:44:27.874Z,10.99
2023-02-18T09:47:00.347Z,11.00
2023-02-18T09:49:28.814Z,10.99
2023-02-18T09:51:56.065Z,10.96
2023-02-18T09:54:22.524Z,10.96
2023-02-18T09:56:49.591Z,10.99
2023-02-18T09:59:17.666Z,11.02
2023-02-18T10:01:45.564Z,10.96
2023-02-18T10:04:15.506Z,10.95
2023-02-18T10:06:43.610Z,11.04
2023-02-18T10:09:16.811Z,11.09
2023-02-18T10:11:46.195Z,11.04
2023-02-18T10:14:13.840Z,11.05
2023-02-18T10:16:40.303Z,11.10
2023-02-18T10:19:21.268Z,11.10
2023-02-18T10:21:48.080Z,11.09
2023-02-18T10:24:20.696Z,11.04
2023-02-18T10:26:47.560Z,11.22
2023-02-18T10:29:15.919Z,11.19
2023-02-18T10:31:44.458Z,11.33
2023-02-18T10:34:13.901Z,11.30
2023-02-18T10:36:58.367Z,11.43
2023-02-18T10:39:36.968Z,11.62
2023-02-18T10:42:21.930Z,11.72
2023-02-18T10:45:09.236Z,11.91
2023-02-18T10:47:39.350Z,12.11
2023-02-18T10:50:05.692Z,12.05
2023-02-18T10:52:35.748Z,12.07
2023-02-18T10:55:02.175Z,11.99
2023-02-18T10:57:28.557Z,12.18
2023-02-18T11:00:00.440Z,12.21
2023-02-18T11:02:30.884Z,12.32
2023-02-18T11:04:58.635Z,12.27
2023-02-18T11:07:33.525Z,12.22
2023-02-18T11:10:18.058Z,12.31
2023-02-18T11:12:46.666Z,12.38
2023-02-18T11:15:21.139Z,12.31
2023-02-18T11:17:49.573Z,12.25
2023-02-18T11:20:19.026Z,12.27
2023-02-18T11:22:45.389Z,12.21
2023-02-18T11:25:33.545Z,12.23
2023-02-18T11:28:07.269Z,12.21
2023-02-18T11:30:36.786Z,12.28
2023-02-18T11:33:07.288Z,12.23
2023-02-18T11:35:36.660Z,12.21
2023-02-18T11:38:04.220Z,12.13
2023-02-18T11:40:34.565Z,12.30
2023-02-18T11:43:15.654Z,12.34
2023-02-18T11:45:42.642Z,12.40
2023-02-18T11:48:16.326Z,12.38
2023-02-18T11:50:42.866Z,12.44
2023-02-18T11:53:27.720Z,12.50
2023-02-18T11:55:56.447Z,12.44
2023-02-18T11:58:22.818Z,12.52
2023-02-18T12:00:53.384Z,12.62
2023-02-18T12:03:38.189Z,12.70
2023-02-18T12:06:11.535Z,12.51
2023-02-18T12:09:04.127Z,12.45
2023-02-18T12:11:33.743Z,12.47
2023-02-18T12:14:00.470Z,12.44
2023-02-18T12:16:45.830Z,12.58
2023-02-18T12:19:30.397Z,12.52
2023-02-18T12:22:02.844Z,12.57
2023-02-18T12:24:32.043Z,12.56
2023-02-18T12:26:58.345Z,12.54
2023-02-18T12:29:24.722Z,12.49
2023-02-18T12:32:05.106Z,12.55
2023-02-18T12:34:39.228Z,12.61
2023-02-18T12:37:32.345Z,12.78
2023-02-18T12:39:58.809Z,12.73
2023-02-18T12:42:25.155Z,12.81
2023-02-18T12:45:10.297Z,12.88
2023-02-18T12:47:52.588Z,12.80
2023-02-18T12:50:24.888Z,12.94
2023-02-18T12:53:06.603Z,12.91
2023-02-18T12:55:46.918Z,13.04
2023-02-18T12:58:39.298Z,13.04
2023-02-18T13:01:15.162Z,13.00
2023-02-18T13:04:07.652Z,13.05
2023-02-18T13:06:36.817Z,12.97
2023-02-18T13:09:03.208Z,13.07
2023-02-18T13:11:32.317Z,13.00
2023-02-18T13:14:02.483Z,13.02
2023-02-18T13:16:29.626Z,13.04
2023-02-18T13:18:56.019Z,12.97
2023-02-18T13:21:22.986Z,12.96
2023-02-18T13:23:54.411Z,12.90
2023-02-18T13:26:21.336Z,12.98
2023-02-18T13:29:23.515Z,13.03
2023-02-18T13:31:55.892Z,12.98
2023-02-18T13:34:31.431Z,12.96
2023-02-18T13:37:20.991Z,13.03
2023-02-18T13:39:49.970Z,13.04
2023-02-18T13:42:16.374Z,13.01
2023-02-18T13:44:48.686Z,12.98
2023-02-18T13:47:34.958Z,12.97
2023-02-18T13:50:13.840Z,12.97
2023-02-18T13:52:40.450Z,13.00
2023-02-18T13:55:18.355Z,13.07
2023-02-18T13:57:46.698Z,13.03
2023-02-18T14:00:22.126Z,12.98
2023-02-18T14:02:59.112Z,13.00
2023-02-18T14:05:37.578Z,13.05
2023-02-18T14:08:11.673Z,13.05
2023-02-18T14:10:38.407Z,13.07
2023-02-18T14:13:20.157Z,13.09
2023-02-18T14:15:49.952Z,12.96
2023-02-18T14:18:16.275Z,13.08
2023-02-18T14:20:44.195Z,13.09
2023-02-18T14:23:30.777Z,13.11
2023-02-18T14:26:05.160Z,13.14
2023-02-18T14:28:34.382Z,13.07
2023-02-18T14:31:01.788Z,13.09
2023-02-18T14:33:30.504Z,13.03
2023-02-18T14:36:06.304Z,13.02
2023-02-18T14:38:42.902Z,13.10
2023-02-18T14:41:22.204Z,13.05
2023-02-18T14:44:12.033Z,12.98
2023-02-18T14:46:41.210Z,12.94
2023-02-18T14:49:20.206Z,12.90
2023-02-18T14:51:48.137Z,12.96
2023-02-18T14:54:17.339Z,12.86
2023-02-18T14:56:55.503Z,12.82
2023-02-18T14:59:23.585Z,12.80
2023-02-18T15:01:49.930Z,12.75
2023-02-18T15:04:16.307Z,12.80
2023-02-18T15:06:42.699Z,12.82
2023-02-18T15:09:13.671Z,12.81
2023-02-18T15:11:43.081Z,12.80
2023-02-18T15:14:14.140Z,12.75
2023-02-18T15:16:40.710Z,12.78
2023-02-18T15:19:13.537Z,12.78
2023-02-18T15:21:43.127Z,12.73
2023-02-18T15:24:17.229Z,12.69
2023-02-18T15:26:46.879Z,12.64
2023-02-18T15:29:19.928Z,12.61
2023-02-18T15:31:47.053Z,12.62
2023-02-18T15:34:24.221Z,12.64
2023-02-18T15:36:51.216Z,12.62
2023-02-18T15:39:17.540Z,12.53
2023-02-18T15:41:43.995Z,12.60
2023-02-18T15:44:18.786Z,12.60
2023-02-18T15:46:45.128Z,12.57
2023-02-18T15:49:14.674Z,12.57
2023-02-18T15:51:42.044Z,12.56
2023-02-18T15:54:13.639Z,12.54
2023-02-18T15:56:41.374Z,12.59
2023-02-18T15:59:34.218Z,12.56
2023-02-18T16:02:19.486Z,12.55
2023-02-18T16:04:47.256Z,12.52
2023-02-18T16:07:36.821Z,12.45
2023-02-18T16:10:09.470Z,12.45
2023-02-18T16:12:37.843Z,12.41
2023-02-18T16:15:04.581Z,12.34
2023-02-18T16:17:31.219Z,12.42
2023-02-18T16:20:04.765Z,12.38
2023-02-18T16:22:31.470Z,12.47
2023-02-18T16:24:59.636Z,12.47
2023-02-18T16:27:37.549Z,12.42
2023-02-18T16:30:16.102Z,12.37
2023-02-18T16:32:42.597Z,12.41
2023-02-18T16:35:09.650Z,12.31
2023-02-18T16:37:38.822Z,12.33
2023-02-18T16:40:21.317Z,12.35
2023-02-18T16:42:47.653Z,12.31
2023-02-18T16:45:14.011Z,12.29
2023-02-18T16:47:40.894Z,12.29
2023-02-18T16:50:13.974Z,12.28
2023-02-18T16:52:40.391Z,12.25
2023-02-18T16:55:23.043Z,12.21
2023-02-18T16:57:49.536Z,12.22
2023-02-18T17:00:17.077Z,12.11
2023-02-18T17:02:48.364Z,12.14
2023-02-18T17:05:26.353Z,12.15
2023-02-18T17:07:53.775Z,12.15
2023-02-18T17:10:20.604Z,12.12
2023-02-18T17:12:47.077Z,12.14
2023-02-18T17:15:31.056Z,12.09
2023-02-18T17:17:59.323Z,12.06
2023-02-18T17:20:31.209Z,11.97
2023-02-18T17:22:58.522Z,12.05
2023-02-18T17:25:29.507Z,11.99
2023-02-18T17:27:56.039Z,12.12
2023-02-18T17:30:22.567Z,12.09
2023-02-18T17:32:49.656Z,12.09
2023-02-18T17:35:17.774Z,12.11
2023-02-18T17:37:44.132Z,12.18
2023-02-18T17:40:14.910Z,12.12
2023-02-18T17:42:41.290Z,12.15
2023-02-18T17:45:17.628Z,12.17
2023-02-18T17:47:44.206Z,12.24
2023-02-18T17:50:10.749Z,12.18
2023-02-18T17:52:37.221Z,12.23
2023-02-18T17:55:15.740Z,12.21
2023-02-18T17:57:42.157Z,12.14
2023-02-18T18:00:08.831Z,12.22
2023-02-18T18:02:35.147Z,12.24
2023-02-18T18:05:01.540Z,12.20
2023-02-18T18:07:28.000Z,12.24
2023-02-18T18:09:54.437Z,12.15
2023-02-18T18:12:20.821Z,12.15
2023-02-18T18:14:47.181Z,12.08
2023-02-18T18:17:16.367Z,12.14
2023-02-18T18:19:42.789Z,12.10
2023-02-18T18:22:09.174Z,12.10
2023-02-18T18:24:35.757Z,12.14
2023-02-18T18:27:02.325Z,12.11
2023-02-18T18:29:28.839Z,12.09
2023-02-18T18:31:55.230Z,12.05
2023-02-18T18:34:21.837Z,12.14
2023-02-18T18:36:48.234Z,12.07
2023-02-18T18:39:14.542Z,12.09
2023-02-18T18:41:40.919Z,12.06
2023-02-18T18:44:07.521Z,12.00
2023-02-18T18:46:33.955Z,12.05
2023-02-18T18:49:00.276Z,12.05
2023-02-18T18:51:30.639Z,12.02
2023-02-18T18:53:57.167Z,11.97
2023-02-18T18:56:23.518Z,11.98
2023-02-18T18:58:50.154Z,11.93
2023-02-18T19:01:18.226Z,11.97
2023-02-18T19:03:45.214Z,11.94
2023-02-18T19:06:12.434Z,11.83
2023-02-18T19:08:38.920Z,11.86
2023-02-18T19:11:05.422Z,11.83
2023-02-18T19:13:32.675Z,11.84
2023-02-18T19:16:17.925Z,11.84
2023-02-18T19:18:44.492Z,11.88
2023-02-18T19:21:12.297Z,11.82
2023-02-18T19:23:38.924Z,11.85
2023-02-18T19:26:05.639Z,11.78
2023-02-18T19:28:32.012Z,11.82
2023-02-18T19:30:58.480Z,11.70
2023-02-18T19:33:24.899Z,11.80
2023-02-18T19:35:51.492Z,11.78
2023-02-18T19:38:18.513Z,11.83
2023-02-18T19:40:45.303Z,11.82
2023-02-18T19:43:11.821Z,11.76
2023-02-18T19:45:43.082Z,11.78
2023-02-18T19:48:10.863Z,11.78
2023-02-18T19:50:37.221Z,11.74
2023-02-18T19:53:03.648Z,11.76
2023-02-18T19:55:30.020Z,11.77
2023-02-18T19:57:56.397Z,11.81
2023-02-18T20:00:22.852Z,11.86
2023-02-18T20:02:49.955Z,11.73
2023-02-18T20:05:16.636Z,11.81
2023-02-18T20:07:46.003Z,11.81
2023-02-18T20:10:14.057Z,11.83
2023-02-18T20:12:40.674Z,11.87
2023-02-18T20:15:07.290Z,11.81
2023-02-18T20:17:33.934Z,11.80
2023-02-18T20:20:00.355Z,11.83
2023-02-18T20:22:26.697Z,11.82
2023-02-18T20:24:53.041Z,11.88
2023-02-18T20:27:19.371Z,11.86
2023-02-18T20:29:45.713Z,11.86
2023-02-18T20:32:12.177Z,11.87
2023-02-18T20:34:38.514Z,11.85
2023-02-18T20:37:04.929Z,11.86
2023-02-18T20:39:31.404Z,11.91
2023-02-18T20:42:02.925Z,11.89
2023-02-18T20:44:32.121Z,11.92
2023-02-18T20:46:58.513Z,11.89
2023-02-18T20:49:24.875Z,11.89
2023-02-18T20:51:51.269Z,11.86
2023-02-18T20:54:19.734Z,11.78
2023-02-18T20:56:47.414Z,11.79
2023-02-18T20:59:14.713Z,11.82
2023-02-18T21:01:41.974Z,11.80
2023-02-18T21:04:10.430Z,11.80
2023-02-18T21:06:36.912Z,11.74
2023-02-18T21:09:03.710Z,11.78
2023-02-18T21:11:30.085Z,11.69
2023-02-18T21:13:57.383Z,11.78
2023-02-18T21:16:24.477Z,11.78
2023-02-18T21:18:51.646Z,11.75
2023-02-18T21:21:20.217Z,11.74
2023-02-18T21:23:46.767Z,11.75
2023-02-18T21:26:15.353Z,11.75
2023-02-18T21:28:42.253Z,11.71
2023-02-18T21:31:16.807Z,11.73
2023-02-18T21:33:43.280Z,11.75
2023-02-18T21:36:09.667Z,11.73
2023-02-18T21:38:36.084Z,11.71
2023-02-18T21:41:03.600Z,11.74
2023-02-18T21:43:30.798Z,11.77
2023-02-18T21:46:05.520Z,11.77
2023-02-18T21:48:50.535Z,11.79
2023-02-18T21:51:39.858Z,11.77
2023-02-18T21:54:06.333Z,11.77
2023-02-18T21:56:33.018Z,11.74
2023-02-18T21:58:59.419Z,11.81
2023-02-18T22:01:27.658Z,11.76
2023-02-18T22:03:57.172Z,11.74
2023-02-18T22:06:23.691Z,11.75
2023-02-18T22:08:50.089Z,11.75
2023-02-18T22:11:16.523Z,11.71
2023-02-18T22:13:43.824Z,11.74
2023-02-18T22:16:10.413Z,11.73
2023-02-18T22:18:36.958Z,11.79
2023-02-18T22:21:08.634Z,11.78
2023-02-18T22:23:35.442Z,11.72
2023-02-18T22:26:02.813Z,11.65
2023-02-18T22:28:29.190Z,11.64
2023-02-18T22:30:55.554Z,11.62
2023-02-18T22:33:21.869Z,11.60
2023-02-18T22:35:48.262Z,11.58
2023-02-18T22:38:14.586Z,11.58
2023-02-18T22:40:40.949Z,11.51
2023-02-18T22:43:07.377Z,11.53
2023-02-18T22:45:35.890Z,11.54
2023-02-18T22:48:02.317Z,11.50
2023-02-18T22:50:28.703Z,11.50
2023-02-18T22:52:55.031Z,11.46
2023-02-18T22:55:21.429Z,11.45
2023-02-18T22:57:47.861Z,11.43
2023-02-18T23:00:14.651Z,11.46
2023-02-18T23:02:41.041Z,11.38
2023-02-18T23:05:07.551Z,11.40
2023-02-18T23:07:33.995Z,11.37
2023-02-18T23:10:00.427Z,11.41
2023-02-18T23:12:26.788Z,11.33
2023-02-18T23:14:53.209Z,11.37
2023-02-18T23:17:19.652Z,11.28
2023-02-18T23:19:49.891Z,11.33
2023-02-18T23:22:17.446Z,11.35
2023-02-18T23:24:44.429Z,11.27
2023-02-18T23:27:14.906Z,11.27
2023-02-18T23:29:41.580Z,11.31
2023-02-18T23:32:08.690Z,11.35
2023-02-18T23:34:35.153Z,11.28
2023-02-18T23:37:01.581Z,11.24
2023-02-18T23:39:29.331Z,11.16
2023-02-18T23:41:55.812Z,11.20
2023-02-18T23:44:23.388Z,11.16
2023-02-18T23:46:50.135Z,11.19
2023-02-18T23:49:17.280Z,11.19
2023-02-18T23:51:43.701Z,11.21
2023-02-18T23:54:10.651Z,11.21
2023-02-18T23:56:37.246Z,11.18
2023-02-18T23:59:04.493Z,11.24
